createdAt,value
2019-01-16T00:00:12.571Z,4.87
2019-01-16T00:02:53.616Z,4.33
2019-01-16T00:05:49.221Z,4.53
2019-01-16T00:08:40.030Z,4.97
2019-01-16T00:11:20.173Z,4.27
2019-01-16T00:14:14.382Z,4.53
2019-01-16T00:16:51.404Z,6.20
2019-01-16T00:19:33.469Z,4.77
2019-01-16T00:22:18.034Z,4.60
2019-01-16T00:25:23.674Z,5.37
2019-01-16T00:28:14.572Z,5.90
2019-01-16T00:31:02.447Z,4.90
2019-01-16T00:33:39.062Z,6.93
2019-01-16T00:36:25.801Z,6.57
2019-01-16T00:39:19.739Z,4.93
2019-01-16T00:42:02.161Z,7.30
2019-01-16T00:44:48.593Z,6.53
2019-01-16T00:47:37.803Z,5.67
2019-01-16T00:50:26.003Z,7.23
2019-01-16T00:53:13.857Z,5.77
2019-01-16T00:56:07.849Z,5.53
2019-01-16T00:58:48.229Z,6.10
2019-01-16T01:01:35.945Z,6.47
2019-01-16T01:04:36.201Z,7.60
2019-01-16T01:07:24.251Z,5.97
2019-01-16T01:10:17.207Z,7.27
2019-01-16T01:13:08.102Z,9.47
2019-01-16T01:15:47.985Z,5.53
2019-01-16T01:18:40.641Z,6.20
2019-01-16T01:21:30.325Z,7.27
2019-01-16T01:24:20.989Z,6.43
2019-01-16T01:27:14.689Z,5.17
2019-01-16T01:29:51.529Z,7.77
2019-01-16T01:32:57.645Z,6.07
2019-01-16T01:35:42.356Z,6.63
2019-01-16T01:38:34.826Z,5.93
2019-01-16T01:41:21.793Z,6.50
2019-01-16T01:44:08.873Z,6.53
2019-01-16T01:46:46.817Z,8.90
2019-01-16T01:49:28.094Z,6.80
2019-01-16T01:52:14.935Z,6.57
2019-01-16T01:54:56.409Z,7.07
2019-01-16T01:57:56.449Z,9.13
2019-01-16T02:00:42.937Z,6.47
2019-01-16T02:03:33.001Z,7.13
2019-01-16T02:06:15.333Z,7.60
2019-01-16T02:08:54.225Z,6.20
2019-01-16T02:11:51.545Z,6.93
2019-01-16T02:14:48.397Z,7.43
2019-01-16T02:17:36.341Z,7.60
2019-01-16T02:20:25.378Z,8.63
2019-01-16T02:23:18.034Z,8.77
2019-01-16T02:26:10.485Z,11.87
2019-01-16T02:28:54.201Z,10.27
2019-01-16T02:31:29.573Z,13.67
2019-01-16T02:34:29.460Z,9.70
2019-01-16T02:37:09.409Z,11.20
2019-01-16T02:39:49.280Z,11.17
2019-01-16T02:42:28.708Z,13.00
2019-01-16T02:45:16.029Z,10.10
2019-01-16T02:47:58.942Z,10.63
2019-01-16T02:50:38.834Z,12.77
2019-01-16T02:53:19.664Z,12.73
2019-01-16T02:56:06.202Z,10.33
2019-01-16T02:58:51.338Z,9.50
2019-01-16T03:01:48.246Z,10.10
2019-01-16T03:04:51.253Z,10.87
2019-01-16T03:07:44.653Z,8.27
2019-01-16T03:10:50.701Z,8.87
2019-01-16T03:13:56.773Z,7.33
2019-01-16T03:16:33.959Z,7.60
2019-01-16T03:19:20.465Z,10.20
2019-01-16T03:22:02.877Z,8.47
2019-01-16T03:24:40.095Z,8.13
2019-01-16T03:27:27.917Z,6.33
2019-01-16T03:30:02.731Z,10.83
2019-01-16T03:32:53.312Z,8.47
2019-01-16T03:35:53.158Z,10.40
2019-01-16T03:38:50.194Z,8.47
2019-01-16T03:41:29.529Z,11.37
2019-01-16T03:44:18.487Z,10.37
2019-01-16T03:47:10.851Z,11.53
2019-01-16T03:49:58.699Z,12.90
2019-01-16T03:52:37.409Z,12.37
2019-01-16T03:55:24.538Z,12.97
2019-01-16T03:58:11.450Z,11.67
2019-01-16T04:00:58.089Z,12.37
2019-01-16T04:03:43.732Z,13.70
2019-01-16T04:06:31.446Z,11.50
2019-01-16T04:09:34.735Z,13.63
2019-01-16T04:12:31.896Z,13.67
2019-01-16T04:15:23.946Z,12.70
2019-01-16T04:18:20.713Z,15.77
2019-01-16T04:20:59.807Z,14.20
2019-01-16T04:23:55.216Z,14.33
2019-01-16T04:26:41.509Z,15.47
2019-01-16T04:29:25.567Z,17.57
2019-01-16T04:32:19.497Z,15.23
2019-01-16T04:35:09.752Z,16.13
2019-01-16T04:38:02.528Z,17.63
2019-01-16T04:40:44.462Z,18.60
2019-01-16T04:43:44.413Z,19.30
2019-01-16T04:46:31.170Z,21.07
2019-01-16T04:49:14.326Z,19.33
2019-01-16T04:52:14.525Z,16.83
2019-01-16T04:55:05.493Z,18.83
2019-01-16T04:58:02.835Z,17.43
2019-01-16T05:00:49.471Z,15.80
2019-01-16T05:03:49.693Z,13.70
2019-01-16T05:06:34.110Z,16.10
2019-01-16T05:09:29.697Z,14.70
2019-01-16T05:12:29.616Z,17.33
2019-01-16T05:15:14.316Z,11.63
2019-01-16T05:18:00.885Z,13.17
2019-01-16T05:20:40.845Z,13.70
2019-01-16T05:23:23.472Z,13.70
2019-01-16T05:26:14.121Z,15.27
2019-01-16T05:29:00.673Z,13.40
2019-01-16T05:31:48.536Z,12.87
2019-01-16T05:34:36.378Z,13.43
2019-01-16T05:37:23.209Z,15.67
2019-01-16T05:40:12.473Z,14.37
2019-01-16T05:43:15.665Z,16.87
2019-01-16T05:46:02.110Z,13.87
2019-01-16T05:48:40.519Z,15.27
2019-01-16T05:51:38.331Z,15.90
2019-01-16T05:54:31.646Z,17.50
2019-01-16T05:57:11.449Z,15.73
2019-01-16T05:59:48.203Z,17.80
2019-01-16T06:02:34.749Z,14.13
2019-01-16T06:05:34.965Z,14.10
2019-01-16T06:08:17.952Z,16.17
2019-01-16T06:10:59.514Z,17.10
2019-01-16T06:13:49.367Z,14.47
2019-01-16T06:16:40.049Z,15.33
2019-01-16T06:19:18.565Z,15.80
2019-01-16T06:22:05.414Z,14.87
2019-01-16T06:24:59.533Z,13.80
2019-01-16T06:27:57.893Z,15.40
2019-01-16T06:30:41.438Z,13.13
2019-01-16T06:33:28.093Z,16.17
2019-01-16T06:36:28.360Z,20.77
2019-01-16T06:39:06.510Z,12.03
2019-01-16T06:41:53.358Z,13.20
2019-01-16T06:44:40.243Z,14.50
2019-01-16T06:47:18.265Z,15.10
2019-01-16T06:50:04.634Z,12.10
2019-01-16T06:52:50.142Z,12.30
2019-01-16T06:55:28.965Z,15.17
2019-01-16T06:58:25.965Z,14.47
2019-01-16T07:01:29.089Z,14.07
2019-01-16T07:04:31.947Z,10.83
2019-01-16T07:07:19.778Z,11.47
2019-01-16T07:10:25.725Z,17.13
2019-01-16T07:13:11.394Z,10.87
2019-01-16T07:15:58.022Z,10.90
2019-01-16T07:18:55.202Z,15.73
2019-01-16T07:21:43.118Z,11.13
2019-01-16T07:24:46.362Z,11.87
2019-01-16T07:27:37.121Z,12.07
2019-01-16T07:30:22.125Z,12.47
2019-01-16T07:33:08.876Z,12.67
2019-01-16T07:36:00.001Z,12.87
2019-01-16T07:38:46.609Z,11.77
2019-01-16T07:41:52.956Z,11.63
2019-01-16T07:44:36.551Z,10.73
2019-01-16T07:47:23.433Z,11.63
2019-01-16T07:50:23.409Z,12.00
2019-01-16T07:53:04.144Z,13.37
2019-01-16T07:55:57.823Z,11.27
2019-01-16T07:59:04.109Z,11.93
2019-01-16T08:01:49.469Z,12.07
2019-01-16T08:04:37.806Z,10.33
2019-01-16T08:07:25.725Z,10.13
2019-01-16T08:10:08.438Z,11.37
2019-01-16T08:13:01.629Z,10.37
2019-01-16T08:15:55.455Z,11.83
2019-01-16T08:18:41.628Z,10.73
2019-01-16T08:21:33.717Z,10.80
2019-01-16T08:24:21.553Z,10.70
2019-01-16T08:27:01.900Z,10.50
2019-01-16T08:29:52.793Z,11.23
2019-01-16T08:32:31.233Z,10.67
2019-01-16T08:35:06.733Z,12.37
2019-01-16T08:37:53.941Z,9.83
2019-01-16T08:40:40.797Z,10.93
2019-01-16T08:43:27.488Z,11.90
2019-01-16T08:46:18.661Z,12.77
2019-01-16T08:49:05.375Z,9.77
2019-01-16T08:51:52.101Z,6.60
2019-01-16T08:54:43.003Z,7.03
2019-01-16T08:57:33.735Z,7.37
2019-01-16T09:00:30.741Z,8.37
2019-01-16T09:03:24.462Z,8.07
2019-01-16T09:06:13.666Z,10.17
2019-01-16T09:09:19.901Z,9.57
2019-01-16T09:12:16.341Z,8.90
2019-01-16T09:15:12.797Z,8.67
2019-01-16T09:17:52.619Z,7.53
2019-01-16T09:20:43.608Z,5.33
2019-01-16T09:23:49.766Z,5.73
2019-01-16T09:26:46.689Z,5.27
2019-01-16T09:29:28.738Z,6.07
2019-01-16T09:32:22.657Z,8.20
2019-01-16T09:35:10.515Z,8.80
2019-01-16T09:37:58.361Z,5.17
2019-01-16T09:40:44.801Z,4.87
2019-01-16T09:43:31.829Z,6.60
2019-01-16T09:46:22.778Z,5.07
2019-01-16T09:49:08.079Z,11.27
2019-01-16T09:51:55.970Z,5.57
2019-01-16T09:54:39.797Z,6.00
2019-01-16T09:57:26.397Z,7.50
2019-01-16T10:00:13.269Z,7.97
2019-01-16T10:03:06.349Z,5.40
2019-01-16T10:05:52.993Z,5.07
2019-01-16T10:08:40.857Z,6.10
2019-01-16T10:11:25.586Z,10.50
2019-01-16T10:14:12.243Z,6.10
2019-01-16T10:16:53.249Z,7.07
2019-01-16T10:19:39.745Z,9.30
2019-01-16T10:22:26.829Z,5.70
2019-01-16T10:25:13.681Z,7.77
2019-01-16T10:28:07.826Z,7.60
2019-01-16T10:30:59.486Z,9.07
2019-01-16T10:33:48.460Z,8.17
2019-01-16T10:36:35.402Z,7.70
2019-01-16T10:39:18.005Z,9.27
2019-01-16T10:41:59.005Z,9.20
2019-01-16T10:44:55.639Z,7.57
2019-01-16T10:47:42.182Z,8.10
2019-01-16T10:50:29.605Z,10.33
2019-01-16T10:53:17.417Z,10.53
2019-01-16T10:56:03.962Z,10.53
2019-01-16T10:58:54.897Z,8.57
2019-01-16T11:01:37.390Z,7.90
2019-01-16T11:04:25.301Z,9.33
2019-01-16T11:07:16.338Z,10.53
2019-01-16T11:10:04.811Z,6.37
2019-01-16T11:12:51.766Z,7.53
2019-01-16T11:15:45.815Z,9.73
2019-01-16T11:18:32.376Z,8.00
2019-01-16T11:21:18.276Z,8.20
2019-01-16T11:24:04.993Z,8.60
2019-01-16T11:26:52.805Z,11.30
2019-01-16T11:29:46.809Z,11.37
2019-01-16T11:32:40.459Z,9.33
2019-01-16T11:35:22.462Z,12.60
2019-01-16T11:38:16.213Z,9.60
2019-01-16T11:41:00.401Z,8.77
2019-01-16T11:43:57.553Z,9.10
2019-01-16T11:46:48.542Z,11.70
2019-01-16T11:49:33.901Z,8.47
2019-01-16T11:52:19.404Z,11.10
2019-01-16T11:55:05.884Z,8.37
2019-01-16T11:58:02.770Z,11.33
2019-01-16T12:00:48.017Z,16.27
2019-01-16T12:03:42.845Z,15.37
2019-01-16T12:06:29.837Z,14.77
2019-01-16T12:09:16.573Z,11.10
2019-01-16T12:12:00.898Z,10.43
2019-01-16T12:14:39.900Z,14.90
2019-01-16T12:17:29.800Z,11.73
2019-01-16T12:20:07.859Z,10.63
2019-01-16T12:22:49.295Z,12.20
2019-01-16T12:25:33.443Z,14.23
2019-01-16T12:28:21.384Z,12.77
2019-01-16T12:31:08.051Z,12.83
2019-01-16T12:33:58.945Z,15.50
2019-01-16T12:36:45.385Z,13.43
2019-01-16T12:39:31.890Z,14.50
2019-01-16T12:42:25.290Z,15.23
2019-01-16T12:45:11.865Z,10.67
2019-01-16T12:48:05.824Z,9.57
2019-01-16T12:51:08.815Z,10.47
2019-01-16T12:53:47.944Z,12.17
2019-01-16T12:56:41.594Z,13.20
2019-01-16T12:59:28.308Z,10.53
2019-01-16T13:02:12.478Z,11.10
2019-01-16T13:05:00.391Z,11.53
2019-01-16T13:07:42.922Z,10.53
2019-01-16T13:10:30.957Z,8.53
2019-01-16T13:13:27.643Z,13.13
2019-01-16T13:16:14.395Z,9.17
2019-01-16T13:19:08.096Z,12.43
2019-01-16T13:22:11.128Z,10.53
2019-01-16T13:24:49.913Z,12.17
2019-01-16T13:27:32.887Z,9.70
2019-01-16T13:30:23.841Z,8.20
2019-01-16T13:33:10.700Z,12.67
2019-01-16T13:35:57.561Z,9.27
2019-01-16T13:38:39.565Z,11.67
2019-01-16T13:41:15.201Z,9.30
2019-01-16T13:44:01.805Z,8.50
2019-01-16T13:46:52.757Z,10.60
2019-01-16T13:49:55.782Z,7.50
2019-01-16T13:52:42.377Z,8.10
2019-01-16T13:55:29.377Z,8.37
2019-01-16T13:58:15.237Z,9.50
2019-01-16T14:01:15.492Z,8.50
2019-01-16T14:04:02.318Z,10.10
2019-01-16T14:06:56.649Z,9.10
2019-01-16T14:09:43.157Z,8.33
2019-01-16T14:12:33.008Z,9.23
2019-01-16T14:15:19.522Z,8.53
2019-01-16T14:17:58.532Z,9.03
2019-01-16T14:20:56.691Z,8.10
2019-01-16T14:23:50.833Z,12.57
2019-01-16T14:26:37.489Z,8.40
2019-01-16T14:29:15.985Z,10.83
2019-01-16T14:32:16.354Z,9.27
2019-01-16T14:35:09.086Z,8.30
2019-01-16T14:37:55.649Z,7.97
2019-01-16T14:40:43.661Z,10.23
2019-01-16T14:43:31.546Z,8.03
2019-01-16T14:46:25.485Z,8.90
2019-01-16T14:49:13.697Z,8.43
2019-01-16T14:52:00.952Z,6.93
2019-01-16T14:54:38.442Z,10.70
2019-01-16T14:57:21.862Z,11.63
2019-01-16T15:00:14.736Z,8.67
2019-01-16T15:03:08.636Z,8.87
2019-01-16T15:05:55.870Z,6.93
2019-01-16T15:08:43.796Z,8.07
2019-01-16T15:11:20.088Z,8.43
2019-01-16T15:14:07.072Z,7.67
2019-01-16T15:17:04.141Z,12.20
2019-01-16T15:19:42.737Z,10.00
2019-01-16T15:22:21.596Z,10.47
2019-01-16T15:25:14.041Z,10.40
2019-01-16T15:27:49.877Z,10.03
2019-01-16T15:30:36.485Z,6.90
2019-01-16T15:33:26.689Z,7.67
2019-01-16T15:36:08.081Z,8.70
2019-01-16T15:38:53.905Z,9.00
2019-01-16T15:41:40.710Z,8.13
2019-01-16T15:44:29.444Z,7.90
2019-01-16T15:47:20.305Z,8.33
2019-01-16T15:50:18.665Z,7.53
2019-01-16T15:53:18.498Z,9.07
2019-01-16T15:56:05.227Z,8.47
2019-01-16T15:58:41.197Z,10.47
2019-01-16T16:01:23.140Z,13.37
2019-01-16T16:04:17.026Z,10.67
2019-01-16T16:07:09.494Z,8.30
2019-01-16T16:09:44.497Z,13.20
2019-01-16T16:12:35.169Z,6.70
2019-01-16T16:15:17.407Z,7.73
2019-01-16T16:18:04.217Z,7.70
2019-01-16T16:21:00.904Z,7.60
2019-01-16T16:23:48.892Z,8.17
2019-01-16T16:26:39.878Z,11.10
2019-01-16T16:29:26.376Z,8.93
2019-01-16T16:32:04.619Z,5.93
2019-01-16T16:34:52.121Z,5.53
2019-01-16T16:37:39.097Z,12.40
2019-01-16T16:40:20.069Z,8.23
2019-01-16T16:43:00.457Z,6.50
2019-01-16T16:45:47.197Z,9.77
2019-01-16T16:48:30.090Z,8.03
2019-01-16T16:51:17.910Z,8.20
2019-01-16T16:54:00.455Z,11.70
2019-01-16T16:56:47.154Z,5.87
2019-01-16T16:59:35.118Z,6.73
2019-01-16T17:02:28.818Z,10.77
2019-01-16T17:05:25.646Z,7.93
2019-01-16T17:08:17.725Z,10.80
2019-01-16T17:10:56.025Z,10.73
2019-01-16T17:13:52.929Z,10.63
2019-01-16T17:16:59.217Z,9.60
2019-01-16T17:19:46.080Z,10.03
2019-01-16T17:22:34.017Z,8.70
2019-01-16T17:25:11.577Z,10.27
2019-01-16T17:27:55.132Z,9.57
2019-01-16T17:30:49.090Z,12.37
2019-01-16T17:33:38.511Z,11.90
2019-01-16T17:36:25.353Z,10.17
2019-01-16T17:39:12.289Z,13.57
2019-01-16T17:41:58.493Z,12.93
2019-01-16T17:44:50.792Z,9.63
2019-01-16T17:47:31.794Z,13.93
2019-01-16T17:50:12.086Z,12.57
2019-01-16T17:52:58.601Z,11.07
2019-01-16T17:55:52.650Z,12.83
2019-01-16T17:58:40.492Z,11.67
2019-01-16T18:01:27.197Z,9.67
2019-01-16T18:04:18.120Z,11.27
2019-01-16T18:07:18.092Z,11.73
2019-01-16T18:10:04.537Z,15.83
2019-01-16T18:12:51.491Z,16.47
2019-01-16T18:15:38.169Z,10.80
2019-01-16T18:18:16.631Z,19.37
2019-01-16T18:21:10.607Z,15.53
2019-01-16T18:24:04.571Z,13.37
2019-01-16T18:26:51.313Z,11.93
2019-01-16T18:29:38.193Z,13.43
2019-01-16T18:32:26.025Z,11.30
2019-01-16T18:35:22.460Z,17.50
2019-01-16T18:38:17.614Z,14.30
2019-01-16T18:41:01.814Z,12.10
2019-01-16T18:43:48.609Z,11.70
2019-01-16T18:46:36.748Z,14.60
2019-01-16T18:49:11.721Z,11.77
2019-01-16T18:51:51.673Z,13.63
2019-01-16T18:54:57.737Z,14.70
2019-01-16T18:57:35.934Z,13.97
2019-01-16T19:00:27.839Z,14.73
2019-01-16T19:03:14.318Z,17.70
2019-01-16T19:06:06.681Z,14.20
2019-01-16T19:08:58.542Z,18.03
2019-01-16T19:11:51.985Z,14.37
2019-01-16T19:14:35.484Z,14.60
2019-01-16T19:17:32.856Z,18.60
2019-01-16T19:20:35.973Z,14.97
2019-01-16T19:23:16.633Z,17.13
2019-01-16T19:26:03.472Z,14.20
2019-01-16T19:28:54.315Z,16.13
2019-01-16T19:31:40.853Z,13.13
2019-01-16T19:34:18.054Z,15.07
2019-01-16T19:37:04.581Z,18.30
2019-01-16T19:39:51.853Z,12.13
2019-01-16T19:42:39.855Z,15.00
2019-01-16T19:45:28.072Z,15.10
2019-01-16T19:48:05.998Z,18.43
2019-01-16T19:50:49.971Z,14.43
2019-01-16T19:53:42.376Z,17.17
2019-01-16T19:56:33.684Z,17.17
2019-01-16T19:59:20.553Z,15.80
2019-01-16T20:02:07.261Z,17.17
2019-01-16T20:04:49.501Z,15.93
2019-01-16T20:07:46.538Z,16.17
2019-01-16T20:10:39.629Z,15.70
2019-01-16T20:13:24.557Z,20.60
2019-01-16T20:16:01.986Z,15.17
2019-01-16T20:18:59.097Z,17.63
2019-01-16T20:21:37.157Z,14.60
2019-01-16T20:24:28.303Z,14.93
2019-01-16T20:27:10.854Z,19.77
2019-01-16T20:30:01.877Z,15.53
2019-01-16T20:32:55.758Z,20.37
2019-01-16T20:35:42.297Z,15.40
2019-01-16T20:38:19.590Z,14.03
2019-01-16T20:41:16.409Z,16.63
2019-01-16T20:44:03.287Z,11.63
2019-01-16T20:46:55.392Z,14.83
2019-01-16T20:49:40.205Z,15.33
2019-01-16T20:52:31.169Z,13.57
2019-01-16T20:55:22.619Z,14.70
2019-01-16T20:58:13.297Z,25.77
2019-01-16T21:00:59.861Z,15.67
2019-01-16T21:03:47.801Z,17.03
2019-01-16T21:06:34.626Z,18.20
2019-01-16T21:09:39.153Z,15.03
2019-01-16T21:12:36.045Z,15.53
2019-01-16T21:15:17.393Z,18.23
2019-01-16T21:18:06.205Z,15.63
2019-01-16T21:20:57.297Z,19.50
2019-01-16T21:23:44.760Z,19.97
2019-01-16T21:26:31.460Z,19.03
2019-01-16T21:29:19.385Z,14.87
2019-01-16T21:32:09.809Z,23.37
2019-01-16T21:34:53.943Z,20.20
2019-01-16T21:37:40.197Z,13.23
2019-01-16T21:40:32.061Z,18.17
2019-01-16T21:43:26.018Z,17.53
2019-01-16T21:46:17.030Z,16.80
2019-01-16T21:49:13.958Z,19.57
2019-01-16T21:52:14.070Z,17.83
2019-01-16T21:55:05.025Z,16.30
2019-01-16T21:57:52.541Z,13.37
2019-01-16T22:00:58.865Z,14.23
2019-01-16T22:03:45.365Z,19.77
2019-01-16T22:06:23.181Z,15.60
2019-01-16T22:09:15.143Z,14.20
2019-01-16T22:11:58.346Z,17.40
2019-01-16T22:14:46.838Z,11.53
2019-01-16T22:17:33.669Z,14.87
2019-01-16T22:20:14.294Z,16.40
2019-01-16T22:23:02.137Z,6.47
2019-01-16T22:25:49.145Z,8.67
2019-01-16T22:28:36.142Z,8.27
2019-01-16T22:31:19.591Z,9.47
2019-01-16T22:34:04.495Z,5.13
2019-01-16T22:37:04.753Z,4.57
2019-01-16T22:39:52.568Z,3.30
2019-01-16T22:42:30.274Z,6.93
2019-01-16T22:45:24.195Z,3.03
2019-01-16T22:48:24.009Z,4.47
2019-01-16T22:51:20.845Z,4.80
2019-01-16T22:54:20.521Z,2.10
2019-01-16T22:57:14.537Z,2.77
2019-01-16T23:00:02.953Z,3.77
2019-01-16T23:02:42.167Z,3.37
2019-01-16T23:05:29.095Z,2.87
2019-01-16T23:08:04.273Z,0.80
2019-01-16T23:10:41.421Z,0.80
2019-01-16T23:13:29.290Z,3.63
2019-01-16T23:16:20.187Z,1.40
2019-01-16T23:19:09.309Z,1.23
2019-01-16T23:21:55.987Z,2.67
2019-01-16T23:24:42.761Z,1.37
2019-01-16T23:27:29.553Z,1.93
2019-01-16T23:30:11.384Z,0.77
2019-01-16T23:33:00.339Z,1.87
2019-01-16T23:35:43.011Z,1.60
2019-01-16T23:38:39.501Z,0.70
2019-01-16T23:41:26.118Z,2.47
2019-01-16T23:44:12.863Z,1.63
2019-01-16T23:46:55.293Z,1.53
2019-01-16T23:49:32.473Z,3.40
2019-01-16T23:52:34.930Z,1.23
2019-01-16T23:55:29.727Z,2.10
2019-01-16T23:58:21.260Z,0.57
